Vingaren — OZ2131 — position and weather

sailwx.info

Track history (hours):
 
Tides and Currents Weather Stations Pressure Air Temp Water Temp Dewpoint Dewpoint Depression Visibility Wind Speed Wind Dir Waves Ship Positions

Vingaren

Last reported at 2017-Mar-30 00:33 UTC. Time now 2017-Mar-30 00:47 UTC.
Position N 57°03' E 009°56'.

Length 89 m; draft 6.6 m.

Type: Cargo ship. MMSI: 231844000.

Date/timePositionNaut miles runAvg speedWind from/ knotsBaromVisibWave heightAir tempDewpointWater temp
2017-Mar-30 00:33N 57°03' E 009°56'0 0.0
2017-Mar-29 23:27N 57°03' E 009°56'0 0.0
2017-Mar-29 22:33N 57°03' E 009°56'0 0.0
2017-Mar-29 21:33N 57°03' E 009°56'0 0.0
2017-Mar-29 20:33N 57°03' E 009°56'0 0.0
2017-Mar-29 19:32N 57°03' E 009°56'0 0.0
2017-Mar-29 18:29N 57°03' E 009°56'0 0.0
2017-Mar-29 17:32N 57°03' E 009°56'0 0.0
2017-Mar-29 16:32N 57°03' E 009°56'0 0.0
2017-Mar-29 15:29N 57°03' E 009°56'0 0.0
2017-Mar-29 14:26N 57°03' E 009°56'0 0.0
2017-Mar-29 13:32N 57°03' E 009°56'0 0.0
2017-Mar-29 12:32N 57°03' E 009°56'0 0.0
2017-Mar-29 11:29N 57°03' E 009°56'0 0.0
2017-Mar-29 10:32N 57°03' E 009°56'0 0.0
2017-Mar-29 09:29N 57°03' E 009°56'0 0.0
2017-Mar-29 08:29N 57°03' E 009°56'0 0.0
2017-Mar-29 07:17N 57°03' E 009°56'0 0.0
2017-Mar-29 06:29N 57°03' E 009°56'0 0.0
2017-Mar-29 05:32N 57°03' E 009°56'0 0.0
2017-Mar-29 04:32N 57°03' E 009°56'0 0.0
2017-Mar-29 03:29N 57°03' E 009°56'0 0.0
2017-Mar-29 02:32N 57°03' E 009°56'0 0.0
2017-Mar-29 01:29N 57°03' E 009°56'0 0.0
2017-Mar-29 00:32N 57°03' E 009°56'0 0.0
2017-Mar-28 23:26N 57°03' E 009°56'0 0.0
2017-Mar-28 22:29N 57°03' E 009°56'0 0.0
2017-Mar-28 21:29N 57°03' E 009°56'0 0.0
2017-Mar-28 20:29N 57°03' E 009°56'0 0.0
2017-Mar-28 19:32N 57°03' E 009°56'0 0.0
2017-Mar-28 18:32N 57°03' E 009°56'1 1.3
2017-Mar-28 17:33N 57°04' E 009°58'7 7.4
2017-Mar-28 16:33N 57°00' E 010°10'10 9.3
2017-Mar-28 15:31N 56°57' E 010°27'10 9.5
2017-Mar-28 14:25N 56°50' E 010°41'9 9.6
2017-Mar-28 13:26N 56°45' E 010°56'9 9.4
2017-Mar-28 12:25N 56°37' E 011°05'10 9.7
2017-Mar-28 11:24N 56°29' E 011°15'2110.5
2017-Mar-28 09:27N 56°21' E 011°49'1010.1
2017-Mar-28 08:30N 56°18' E 012°05'1010.1
2017-Mar-28 07:33N 56°12' E 012°20'1010.6
2017-Mar-28 06:33N 56°06' E 012°35'1110.7
2017-Mar-28 05:33N 55°56' E 012°43'1010.1
2017-Mar-28 04:33N 55°46' E 012°42'10 9.9
2017-Mar-28 03:33N 55°36' E 012°42'9 9.3
2017-Mar-28 02:33N 55°27' E 012°42'9 9.3
2017-Mar-28 01:33N 55°18' E 012°44'1010.0
2017-Mar-28 00:33N 55°15' E 013°01'1010.0
2017-Mar-27 23:33N 55°15' E 013°18'10 9.7
2017-Mar-27 22:32N 55°14' E 013°36'9 9.6
2017-Mar-27 21:33N 55°14' E 013°52'10 9.6
2017-Mar-27 20:33N 55°14' E 014°09'9 9.2
2017-Mar-27 19:33N 55°18' E 014°23'10 9.7
2017-Mar-27 18:33N 55°25' E 014°34'9 9.5
2017-Mar-27 17:33N 55°31' E 014°48'9 9.2
2017-Mar-27 16:33N 55°35' E 015°02'9 9.3
2017-Mar-27 15:33N 55°40' E 015°17'9 9.3
2017-Mar-27 14:33N 55°45' E 015°31'9 9.3
2017-Mar-27 13:33N 55°49' E 015°45'9 9.4
2017-Mar-27 12:33N 55°54' E 015°59'10 9.6
2017-Mar-27 11:33N 55°59' E 016°14'10 9.6
2017-Mar-27 10:33N 56°04' E 016°29'10 9.9
2017-Mar-27 09:33N 56°08' E 016°45'1010.1
2017-Mar-27 08:33N 56°14' E 016°60'1010.2
2017-Mar-27 07:33N 56°21' E 017°14'  
2017-Mar-21 00:23N 59°35' E 021°18'910.3
2017-Mar-20 23:33N 59°34' E 021°35'1010.3
2017-Mar-20 22:33N 59°34' E 021°56'10210.2
2017-Mar-20 12:32N 59°53' E 025°15'1010.0
2017-Mar-20 11:33N 59°55' E 025°34'1010.1
2017-Mar-20 10:31N 59°57' E 025°54'1010.1
2017-Mar-20 09:33N 59°59' E 026°13'1010.0
2017-Mar-20 08:32N 60°01' E 026°33'10 9.9
2017-Mar-20 07:33N 60°00' E 026°53'30 9.8
2017-Mar-20 04:31N 60°12' E 027°47'10 9.9
2017-Mar-20 03:33N 60°10' E 028°05'9 9.5
2017-Mar-20 02:33N 60°05' E 028°23'10 9.9
2017-Mar-20 01:33N 60°03' E 028°42'9 9.0
2017-Mar-20 00:33N 60°02' E 028°60'  
Track history (hours):
 
Tides and Currents Weather Stations Pressure Air Temp Water Temp Dewpoint Dewpoint Depression Visibility Wind Speed Wind Dir Waves Ship Positions

Vingaren

Last reported at 2017-Mar-30 00:33 UTC. Time now 2017-Mar-30 00:47 UTC.
Position N 57°03' E 009°56'.

Length 89 m; draft 6.6 m.

Type: Cargo ship. MMSI: 231844000.

Date/timePositionNaut miles runAvg speedWind from/ knotsBaromVisibWave heightAir tempDewpointWater temp
2017-Mar-30 00:33N 57°03' E 009°56'0 0.0
2017-Mar-29 23:27N 57°03' E 009°56'0 0.0
2017-Mar-29 22:33N 57°03' E 009°56'0 0.0
2017-Mar-29 21:33N 57°03' E 009°56'0 0.0
2017-Mar-29 20:33N 57°03' E 009°56'0 0.0
2017-Mar-29 19:32N 57°03' E 009°56'0 0.0
2017-Mar-29 18:29N 57°03' E 009°56'0 0.0
2017-Mar-29 17:32N 57°03' E 009°56'0 0.0
2017-Mar-29 16:32N 57°03' E 009°56'0 0.0
2017-Mar-29 15:29N 57°03' E 009°56'0 0.0
2017-Mar-29 14:26N 57°03' E 009°56'0 0.0
2017-Mar-29 13:32N 57°03' E 009°56'0 0.0
2017-Mar-29 12:32N 57°03' E 009°56'0 0.0
2017-Mar-29 11:29N 57°03' E 009°56'0 0.0
2017-Mar-29 10:32N 57°03' E 009°56'0 0.0
2017-Mar-29 09:29N 57°03' E 009°56'0 0.0
2017-Mar-29 08:29N 57°03' E 009°56'0 0.0
2017-Mar-29 07:17N 57°03' E 009°56'0 0.0
2017-Mar-29 06:29N 57°03' E 009°56'0 0.0
2017-Mar-29 05:32N 57°03' E 009°56'0 0.0
2017-Mar-29 04:32N 57°03' E 009°56'0 0.0
2017-Mar-29 03:29N 57°03' E 009°56'0 0.0
2017-Mar-29 02:32N 57°03' E 009°56'0 0.0
2017-Mar-29 01:29N 57°03' E 009°56'0 0.0
2017-Mar-29 00:32N 57°03' E 009°56'0 0.0
2017-Mar-28 23:26N 57°03' E 009°56'0 0.0
2017-Mar-28 22:29N 57°03' E 009°56'0 0.0
2017-Mar-28 21:29N 57°03' E 009°56'0 0.0
2017-Mar-28 20:29N 57°03' E 009°56'0 0.0
2017-Mar-28 19:32N 57°03' E 009°56'0 0.0
2017-Mar-28 18:32N 57°03' E 009°56'1 1.3
2017-Mar-28 17:33N 57°04' E 009°58'7 7.4
2017-Mar-28 16:33N 57°00' E 010°10'10 9.3
2017-Mar-28 15:31N 56°57' E 010°27'10 9.5
2017-Mar-28 14:25N 56°50' E 010°41'9 9.6
2017-Mar-28 13:26N 56°45' E 010°56'9 9.4
2017-Mar-28 12:25N 56°37' E 011°05'10 9.7
2017-Mar-28 11:24N 56°29' E 011°15'2110.5
2017-Mar-28 09:27N 56°21' E 011°49'1010.1
2017-Mar-28 08:30N 56°18' E 012°05'1010.1
2017-Mar-28 07:33N 56°12' E 012°20'1010.6
2017-Mar-28 06:33N 56°06' E 012°35'1110.7
2017-Mar-28 05:33N 55°56' E 012°43'1010.1
2017-Mar-28 04:33N 55°46' E 012°42'10 9.9
2017-Mar-28 03:33N 55°36' E 012°42'9 9.3
2017-Mar-28 02:33N 55°27' E 012°42'9 9.3
2017-Mar-28 01:33N 55°18' E 012°44'1010.0
2017-Mar-28 00:33N 55°15' E 013°01'1010.0
2017-Mar-27 23:33N 55°15' E 013°18'10 9.7
2017-Mar-27 22:32N 55°14' E 013°36'9 9.6
2017-Mar-27 21:33N 55°14' E 013°52'10 9.6
2017-Mar-27 20:33N 55°14' E 014°09'9 9.2
2017-Mar-27 19:33N 55°18' E 014°23'10 9.7
2017-Mar-27 18:33N 55°25' E 014°34'9 9.5
2017-Mar-27 17:33N 55°31' E 014°48'9 9.2
2017-Mar-27 16:33N 55°35' E 015°02'9 9.3
2017-Mar-27 15:33N 55°40' E 015°17'9 9.3
2017-Mar-27 14:33N 55°45' E 015°31'9 9.3
2017-Mar-27 13:33N 55°49' E 015°45'9 9.4
2017-Mar-27 12:33N 55°54' E 015°59'10 9.6
2017-Mar-27 11:33N 55°59' E 016°14'10 9.6
2017-Mar-27 10:33N 56°04' E 016°29'10 9.9
2017-Mar-27 09:33N 56°08' E 016°45'1010.1
2017-Mar-27 08:33N 56°14' E 016°60'1010.2
2017-Mar-27 07:33N 56°21' E 017°14'  
2017-Mar-21 00:23N 59°35' E 021°18'910.3
2017-Mar-20 23:33N 59°34' E 021°35'1010.3
2017-Mar-20 22:33N 59°34' E 021°56'10210.2
2017-Mar-20 12:32N 59°53' E 025°15'1010.0
2017-Mar-20 11:33N 59°55' E 025°34'1010.1
2017-Mar-20 10:31N 59°57' E 025°54'1010.1
2017-Mar-20 09:33N 59°59' E 026°13'1010.0
2017-Mar-20 08:32N 60°01' E 026°33'10 9.9
2017-Mar-20 07:33N 60°00' E 026°53'30 9.8
2017-Mar-20 04:31N 60°12' E 027°47'10 9.9
2017-Mar-20 03:33N 60°10' E 028°05'9 9.5
2017-Mar-20 02:33N 60°05' E 028°23'10 9.9
2017-Mar-20 01:33N 60°03' E 028°42'9 9.0
2017-Mar-20 00:33N 60°02' E 028°60'  

Dump ship's entire track history